createdAt,value
2017-04-12T00:00:31.166Z,44.07
2017-04-12T00:01:03.409Z,44.07
2017-04-12T00:01:35.650Z,44.17
2017-04-12T00:02:07.906Z,44.17
2017-04-12T00:02:40.211Z,43.97
2017-04-12T00:03:12.514Z,44.07
2017-04-12T00:03:44.817Z,44.17
2017-04-12T00:04:17.129Z,44.17
2017-04-12T00:04:49.434Z,44.07
2017-04-12T00:05:21.759Z,44.07
2017-04-12T00:05:54.065Z,44.07
2017-04-12T00:06:26.366Z,44.07
2017-04-12T00:06:58.672Z,44.17
2017-04-12T00:07:30.972Z,44.07
2017-04-12T00:08:03.281Z,44.17
2017-04-12T00:08:35.576Z,44.07
2017-04-12T00:09:07.890Z,44.17
2017-04-12T00:09:40.207Z,44.35
2017-04-12T00:10:12.507Z,43.88
2017-04-12T00:10:44.801Z,44.07
2017-04-12T00:11:17.098Z,44.07
2017-04-12T00:11:49.441Z,44.17
2017-04-12T00:12:21.745Z,44.17
2017-04-12T00:12:53.990Z,44.17
2017-04-12T00:13:26.242Z,44.07
2017-04-12T00:13:58.498Z,44.35
2017-04-12T00:14:30.755Z,44.34
2017-04-12T00:15:04.031Z,44.17
2017-04-12T00:15:36.290Z,44.17
2017-04-12T00:16:08.541Z,44.35
2017-04-12T00:16:41.612Z,44.17
2017-04-12T00:17:13.893Z,44.17
2017-04-12T00:17:47.136Z,44.17
2017-04-12T00:18:19.386Z,44.35
2017-04-12T00:18:51.646Z,44.26
2017-04-12T00:19:24.492Z,44.45
2017-04-12T00:19:56.751Z,44.35
2017-04-12T00:20:29.018Z,44.17
2017-04-12T00:21:01.273Z,44.26
2017-04-12T00:21:35.137Z,44.35
2017-04-12T00:22:07.393Z,44.17
2017-04-12T00:22:39.636Z,44.17
2017-04-12T00:23:11.869Z,44.17
2017-04-12T00:23:44.126Z,44.26
2017-04-12T00:24:16.398Z,44.17
2017-04-12T00:24:48.647Z,44.17
2017-04-12T00:25:20.915Z,43.88
2017-04-12T00:25:53.190Z,44.35
2017-04-12T00:26:25.445Z,44.26
2017-04-12T00:26:57.683Z,44.45
2017-04-12T00:27:29.929Z,44.17
2017-04-12T00:28:02.295Z,44.17
2017-04-12T00:28:34.572Z,44.17
2017-04-12T00:29:06.838Z,44.17
2017-04-12T00:29:39.092Z,44.17
2017-04-12T00:30:11.335Z,44.17
2017-04-12T00:30:43.591Z,44.35
2017-04-12T00:31:15.846Z,44.17
2017-04-12T00:31:48.086Z,44.17
2017-04-12T00:32:20.349Z,44.26
2017-04-12T00:32:52.589Z,44.17
2017-04-12T00:33:24.998Z,44.14
2017-04-12T00:33:57.249Z,44.26
2017-04-12T00:34:29.519Z,44.45
2017-04-12T00:35:01.774Z,44.17
2017-04-12T00:35:34.033Z,44.17
2017-04-12T00:36:06.278Z,44.17
2017-04-12T00:36:39.171Z,44.17
2017-04-12T00:37:11.422Z,44.17
2017-04-12T00:37:43.684Z,44.07
2017-04-12T00:38:15.940Z,43.97
2017-04-12T00:38:48.248Z,44.17
2017-04-12T00:39:20.531Z,44.17
2017-04-12T00:39:52.799Z,44.17
2017-04-12T00:40:25.045Z,44.17
2017-04-12T00:40:57.310Z,44.17
2017-04-12T00:41:29.552Z,44.17
2017-04-12T00:42:01.807Z,44.26
2017-04-12T00:42:34.110Z,44.26
2017-04-12T00:43:06.421Z,44.17
2017-04-12T00:43:38.735Z,44.17
2017-04-12T00:44:11.053Z,44.35
2017-04-12T00:44:43.357Z,44.26
2017-04-12T00:45:15.653Z,44.17
2017-04-12T00:45:47.953Z,44.35
2017-04-12T00:46:20.255Z,44.35
2017-04-12T00:46:52.553Z,44.35
2017-04-12T00:47:24.866Z,44.35
2017-04-12T00:47:57.157Z,44.45
2017-04-12T00:48:29.475Z,44.26
2017-04-12T00:49:01.765Z,44.35
2017-04-12T00:49:34.062Z,44.45
2017-04-12T00:50:06.362Z,44.45
2017-04-12T00:50:38.670Z,44.35
2017-04-12T00:51:10.971Z,44.07
2017-04-12T00:51:43.286Z,44.45
2017-04-12T00:52:15.606Z,44.17
2017-04-12T00:52:47.852Z,44.07
2017-04-12T00:53:20.111Z,43.97
2017-04-12T00:53:52.420Z,44.17
2017-04-12T00:54:24.677Z,43.97
2017-04-12T00:54:56.922Z,44.17
2017-04-12T00:55:29.163Z,44.17
2017-04-12T00:56:01.430Z,44.43
2017-04-12T00:56:33.678Z,44.17
2017-04-12T00:57:05.929Z,44.17
2017-04-12T00:57:38.172Z,44.26
2017-04-12T00:58:10.438Z,44.14
2017-04-12T00:58:42.693Z,44.17
2017-04-12T00:59:14.950Z,44.17
2017-04-12T00:59:47.205Z,44.17
2017-04-12T01:00:19.441Z,44.26
2017-04-12T01:00:51.735Z,44.07
2017-04-12T01:01:24.506Z,44.17
2017-04-12T01:01:56.767Z,44.17
2017-04-12T01:02:29.031Z,44.17
2017-04-12T01:03:01.339Z,44.17
2017-04-12T01:03:33.655Z,43.97
2017-04-12T01:04:05.957Z,44.17
2017-04-12T01:04:38.261Z,44.05
2017-04-12T01:05:10.572Z,44.07
2017-04-12T01:05:42.873Z,44.35
2017-04-12T01:06:15.177Z,44.07
2017-04-12T01:06:47.512Z,44.07
2017-04-12T01:07:19.812Z,44.17
2017-04-12T01:07:52.129Z,44.17
2017-04-12T01:08:24.437Z,43.95
2017-04-12T01:08:56.732Z,44.14
2017-04-12T01:09:29.029Z,44.17
2017-04-12T01:10:01.326Z,44.05
2017-04-12T01:10:33.650Z,43.88
2017-04-12T01:11:05.976Z,44.24
2017-04-12T01:11:38.287Z,44.17
2017-04-12T01:12:10.596Z,44.14
2017-04-12T01:12:42.892Z,44.14
2017-04-12T01:13:15.208Z,43.95
2017-04-12T01:13:47.497Z,43.95
2017-04-12T01:14:19.821Z,44.14
2017-04-12T01:14:52.124Z,44.07
2017-04-12T01:15:24.415Z,44.07
2017-04-12T01:15:56.727Z,44.07
2017-04-12T01:16:29.036Z,44.14
2017-04-12T01:17:01.344Z,44.07
2017-04-12T01:17:33.633Z,44.35
2017-04-12T01:18:05.937Z,44.05
2017-04-12T01:18:38.246Z,44.35
2017-04-12T01:19:10.556Z,44.17
2017-04-12T01:19:42.914Z,44.35
2017-04-12T01:20:15.217Z,44.24
2017-04-12T01:20:47.515Z,44.17
2017-04-12T01:21:19.815Z,44.14
2017-04-12T01:21:52.109Z,44.05
2017-04-12T01:22:24.418Z,44.07
2017-04-12T01:22:56.722Z,44.05
2017-04-12T01:23:29.011Z,44.05
2017-04-12T01:24:01.322Z,44.17
2017-04-12T01:24:33.620Z,43.78
2017-04-12T01:25:05.925Z,44.14
2017-04-12T01:25:38.224Z,44.14
2017-04-12T01:26:10.535Z,44.14
2017-04-12T01:26:42.845Z,44.14
2017-04-12T01:27:15.141Z,44.14
2017-04-12T01:27:47.458Z,44.17
2017-04-12T01:28:19.767Z,44.24
2017-04-12T01:28:52.094Z,44.05
2017-04-12T01:29:24.397Z,44.05
2017-04-12T01:29:56.710Z,44.26
2017-04-12T01:30:29.016Z,44.17
2017-04-12T01:31:01.311Z,44.17
2017-04-12T01:31:33.607Z,44.17
2017-04-12T01:32:05.895Z,44.05
2017-04-12T01:32:38.206Z,44.17
2017-04-12T01:33:10.547Z,44.05
2017-04-12T01:33:42.860Z,44.07
2017-04-12T01:34:15.179Z,44.24
2017-04-12T01:34:47.475Z,44.26
2017-04-12T01:35:19.773Z,44.05
2017-04-12T01:35:52.076Z,44.05
2017-04-12T01:36:24.368Z,44.07
2017-04-12T01:36:56.659Z,44.17
2017-04-12T01:37:28.964Z,44.24
2017-04-12T01:38:01.265Z,44.24
2017-04-12T01:38:33.571Z,44.14
2017-04-12T01:39:05.895Z,44.26
2017-04-12T01:39:38.198Z,44.07
2017-04-12T01:40:10.508Z,44.24
2017-04-12T01:40:42.809Z,43.97
2017-04-12T01:41:15.121Z,44.05
2017-04-12T01:41:47.426Z,44.17
2017-04-12T01:42:19.718Z,44.24
2017-04-12T01:42:51.971Z,44.24
2017-04-12T01:43:24.235Z,44.17
2017-04-12T01:43:56.496Z,44.17
2017-04-12T01:44:28.763Z,44.14
2017-04-12T01:45:01.017Z,44.26
2017-04-12T01:45:33.269Z,44.05
2017-04-12T01:46:05.519Z,44.26
2017-04-12T01:46:37.773Z,44.26
2017-04-12T01:47:10.034Z,44.24
2017-04-12T01:47:42.278Z,44.05
2017-04-12T01:48:14.511Z,44.24
2017-04-12T01:48:46.761Z,44.17
2017-04-12T01:49:19.024Z,44.07
2017-04-12T01:49:51.264Z,44.14
2017-04-12T01:50:23.501Z,44.24
2017-04-12T01:50:55.728Z,43.95
2017-04-12T01:51:28.088Z,44.24
2017-04-12T01:52:00.348Z,44.24
2017-04-12T01:52:32.647Z,44.24
2017-04-12T01:53:04.957Z,44.26
2017-04-12T01:53:37.247Z,44.05
2017-04-12T01:54:09.543Z,44.14
2017-04-12T01:54:41.840Z,44.14
2017-04-12T01:55:14.144Z,44.14
2017-04-12T01:55:46.435Z,44.24
2017-04-12T01:56:18.740Z,43.95
2017-04-12T01:56:51.054Z,44.24
2017-04-12T01:57:23.345Z,43.95
2017-04-12T01:57:55.636Z,44.05
2017-04-12T01:58:27.937Z,44.17
2017-04-12T01:59:00.239Z,44.05
2017-04-12T01:59:32.542Z,44.34
2017-04-12T02:00:04.843Z,43.95
2017-04-12T02:00:37.144Z,44.24
2017-04-12T02:01:09.459Z,44.17
2017-04-12T02:01:41.773Z,44.24
2017-04-12T02:02:14.082Z,44.34
2017-04-12T02:02:46.403Z,44.14
2017-04-12T02:03:18.717Z,44.14
2017-04-12T02:03:51.011Z,44.05
2017-04-12T02:04:23.316Z,44.14
2017-04-12T02:04:55.619Z,44.14
2017-04-12T02:05:27.927Z,44.35
2017-04-12T02:06:00.218Z,44.14
2017-04-12T02:06:32.515Z,44.24
2017-04-12T02:07:04.811Z,44.14
2017-04-12T02:07:37.108Z,44.24
2017-04-12T02:08:09.414Z,44.14
2017-04-12T02:08:41.712Z,44.14
2017-04-12T02:09:14.025Z,44.34
2017-04-12T02:09:46.326Z,44.24
2017-04-12T02:10:18.641Z,44.26
2017-04-12T02:10:50.943Z,44.26
2017-04-12T02:11:23.239Z,44.24
2017-04-12T02:11:55.543Z,44.17
2017-04-12T02:12:27.842Z,44.24
2017-04-12T02:13:00.146Z,44.05
2017-04-12T02:13:32.439Z,44.05
2017-04-12T02:14:04.744Z,44.14
2017-04-12T02:14:37.041Z,44.14
2017-04-12T02:15:09.336Z,44.05
2017-04-12T02:15:41.638Z,44.05
2017-04-12T02:16:13.943Z,44.24
2017-04-12T02:16:46.252Z,44.24
2017-04-12T02:17:18.549Z,44.24
2017-04-12T02:17:50.849Z,44.05
2017-04-12T02:18:23.143Z,44.24
2017-04-12T02:18:55.446Z,44.14
2017-04-12T02:19:27.745Z,44.07
2017-04-12T02:20:00.047Z,44.05
2017-04-12T02:20:32.363Z,44.24
2017-04-12T02:21:04.660Z,44.24
2017-04-12T02:21:36.972Z,44.14
2017-04-12T02:22:09.264Z,44.17
2017-04-12T02:22:41.567Z,44.14
2017-04-12T02:23:13.875Z,44.14
2017-04-12T02:23:46.169Z,44.05
2017-04-12T02:24:18.518Z,44.14
2017-04-12T02:24:50.811Z,44.24
2017-04-12T02:25:23.116Z,44.05
2017-04-12T02:25:55.437Z,44.05
2017-04-12T02:26:27.741Z,44.05
2017-04-12T02:27:00.048Z,44.05
2017-04-12T02:27:32.382Z,44.24
2017-04-12T02:28:04.687Z,44.24
2017-04-12T02:28:37.004Z,44.26
2017-04-12T02:29:09.340Z,44.05
2017-04-12T02:29:41.679Z,44.05
2017-04-12T02:30:13.979Z,44.14
2017-04-12T02:30:46.281Z,44.05
2017-04-12T02:31:18.572Z,44.24
2017-04-12T02:31:50.870Z,44.05
2017-04-12T02:32:23.164Z,44.24
2017-04-12T02:32:55.473Z,44.24
2017-04-12T02:33:27.778Z,44.05
2017-04-12T02:34:00.082Z,44.24
2017-04-12T02:34:32.385Z,44.14
2017-04-12T02:35:04.712Z,44.24
2017-04-12T02:35:37.016Z,43.95
2017-04-12T02:36:09.330Z,44.14
2017-04-12T02:36:41.647Z,44.34
2017-04-12T02:37:13.953Z,44.05
2017-04-12T02:37:46.258Z,44.24
2017-04-12T02:38:18.581Z,44.05
2017-04-12T02:38:50.877Z,44.05
2017-04-12T02:39:23.178Z,43.95
2017-04-12T02:39:55.477Z,44.24
2017-04-12T02:40:27.798Z,44.24
2017-04-12T02:41:00.090Z,44.14
2017-04-12T02:41:32.397Z,44.05
2017-04-12T02:42:04.693Z,44.24
2017-04-12T02:42:36.948Z,44.05
2017-04-12T02:43:09.196Z,44.14
2017-04-12T02:43:42.657Z,44.34
2017-04-12T02:44:14.965Z,44.14
2017-04-12T02:44:47.228Z,44.05
2017-04-12T02:45:19.502Z,44.24
2017-04-12T02:45:51.748Z,44.05
2017-04-12T02:46:23.999Z,44.05
2017-04-12T02:46:56.261Z,44.05
2017-04-12T02:47:28.521Z,44.05
2017-04-12T02:48:00.766Z,44.05
2017-04-12T02:48:33.023Z,44.24
2017-04-12T02:49:05.272Z,44.05
2017-04-12T02:49:37.546Z,44.05
2017-04-12T02:50:10.596Z,44.14
2017-04-12T02:50:42.859Z,44.05
2017-04-12T02:51:15.116Z,44.24
2017-04-12T02:51:47.378Z,44.05
2017-04-12T02:52:19.637Z,44.24
2017-04-12T02:52:51.893Z,44.24
2017-04-12T02:53:24.120Z,44.05
2017-04-12T02:53:56.361Z,44.14
2017-04-12T02:54:29.175Z,44.34
2017-04-12T02:55:01.417Z,44.05
2017-04-12T02:55:33.668Z,43.95
2017-04-12T02:56:05.905Z,44.05
2017-04-12T02:56:38.147Z,44.24
2017-04-12T02:57:10.423Z,44.05
2017-04-12T02:57:42.670Z,44.05
2017-04-12T02:58:14.953Z,44.24
2017-04-12T02:58:47.296Z,44.24
2017-04-12T02:59:19.537Z,44.24
2017-04-12T02:59:51.784Z,44.24
2017-04-12T03:00:24.043Z,44.24
2017-04-12T03:00:57.220Z,44.05
2017-04-12T03:01:29.600Z,44.24
2017-04-12T03:02:01.866Z,44.24
2017-04-12T03:02:34.171Z,44.05
2017-04-12T03:03:06.490Z,44.24
2017-04-12T03:03:38.805Z,44.24
2017-04-12T03:04:11.115Z,44.05
2017-04-12T03:04:43.429Z,44.05
2017-04-12T03:05:15.722Z,43.95
2017-04-12T03:05:48.019Z,44.24
2017-04-12T03:06:20.345Z,44.14
2017-04-12T03:06:52.644Z,44.14
2017-04-12T03:07:24.943Z,44.24
2017-04-12T03:07:57.248Z,44.24
2017-04-12T03:08:29.602Z,44.14
2017-04-12T03:09:01.905Z,44.24
2017-04-12T03:09:34.213Z,44.24
2017-04-12T03:10:06.535Z,44.14
2017-04-12T03:10:38.844Z,44.24
2017-04-12T03:11:11.148Z,44.24
2017-04-12T03:11:43.443Z,44.24
2017-04-12T03:12:15.739Z,44.05
2017-04-12T03:12:47.995Z,43.95
2017-04-12T03:13:20.277Z,44.24
2017-04-12T03:13:52.642Z,43.95
2017-04-12T03:14:24.888Z,44.24
2017-04-12T03:14:57.124Z,44.14
2017-04-12T03:15:29.383Z,44.24
2017-04-12T03:16:01.629Z,44.24
2017-04-12T03:16:33.868Z,44.05
2017-04-12T03:17:06.113Z,44.05
2017-04-12T03:17:38.377Z,44.24
2017-04-12T03:18:11.521Z,44.05
2017-04-12T03:18:43.885Z,44.24
2017-04-12T03:19:16.131Z,44.14
2017-04-12T03:19:48.392Z,44.05
2017-04-12T03:20:20.669Z,44.14
2017-04-12T03:20:52.925Z,44.24
2017-04-12T03:21:25.176Z,44.05
2017-04-12T03:21:57.443Z,44.05
2017-04-12T03:22:29.700Z,44.14
2017-04-12T03:23:01.952Z,44.24
2017-04-12T03:23:34.199Z,43.95
2017-04-12T03:24:06.455Z,44.14
2017-04-12T03:24:38.697Z,44.05
2017-04-12T03:25:10.948Z,44.24
2017-04-12T03:25:43.311Z,44.24
2017-04-12T03:26:15.566Z,44.24
2017-04-12T03:26:47.809Z,44.24
2017-04-12T03:27:20.702Z,44.24
2017-04-12T03:27:52.947Z,44.14
2017-04-12T03:28:26.131Z,44.24
2017-04-12T03:28:58.442Z,44.24
2017-04-12T03:29:30.700Z,44.14
2017-04-12T03:30:03.621Z,44.24
2017-04-12T03:30:36.608Z,44.24
2017-04-12T03:31:08.865Z,44.05
2017-04-12T03:31:41.101Z,44.24
2017-04-12T03:32:13.476Z,44.05
2017-04-12T03:32:45.796Z,44.24
2017-04-12T03:33:18.089Z,44.24
2017-04-12T03:33:50.398Z,44.24
2017-04-12T03:34:22.711Z,44.24
2017-04-12T03:34:55.015Z,44.14
2017-04-12T03:35:27.307Z,44.14
2017-04-12T03:35:59.607Z,44.05
2017-04-12T03:36:31.912Z,44.14
2017-04-12T03:37:04.203Z,44.14
2017-04-12T03:37:36.517Z,44.05
2017-04-12T03:38:08.816Z,44.24
2017-04-12T03:38:41.119Z,44.14
2017-04-12T03:39:13.418Z,44.24
2017-04-12T03:39:45.722Z,44.34
2017-04-12T03:40:18.018Z,44.24
2017-04-12T03:40:50.324Z,44.24
2017-04-12T03:41:22.617Z,44.05
2017-04-12T03:41:54.925Z,44.05
2017-04-12T03:42:27.242Z,44.24
2017-04-12T03:42:59.555Z,44.05
2017-04-12T03:43:31.861Z,44.05
2017-04-12T03:44:04.172Z,44.14
2017-04-12T03:44:36.488Z,44.14
2017-04-12T03:45:08.789Z,44.14
2017-04-12T03:45:41.097Z,44.05
2017-04-12T03:46:13.397Z,44.05
2017-04-12T03:46:45.707Z,44.24
2017-04-12T03:47:18.007Z,44.05
2017-04-12T03:47:50.300Z,44.14
2017-04-12T03:48:22.608Z,44.05
2017-04-12T03:48:54.917Z,44.05
2017-04-12T03:49:27.210Z,44.14
2017-04-12T03:49:59.511Z,44.34
2017-04-12T03:50:31.809Z,44.05
2017-04-12T03:51:04.111Z,44.24
2017-04-12T03:51:36.403Z,44.14
2017-04-12T03:52:08.691Z,44.24
2017-04-12T03:52:40.945Z,44.14
2017-04-12T03:53:13.199Z,44.05
2017-04-12T03:53:45.436Z,44.24
2017-04-12T03:54:17.703Z,44.05
2017-04-12T03:54:50.043Z,44.05
2017-04-12T03:55:22.311Z,44.14
2017-04-12T03:55:54.556Z,44.34
2017-04-12T03:56:26.826Z,44.24
2017-04-12T03:56:59.089Z,44.24
2017-04-12T03:57:31.339Z,44.34
2017-04-12T03:58:03.685Z,44.14
2017-04-12T03:58:35.948Z,44.14
2017-04-12T03:59:08.195Z,44.14
2017-04-12T03:59:40.438Z,44.05
2017-04-12T04:00:13.189Z,44.14
2017-04-12T04:00:46.087Z,44.24
2017-04-12T04:01:18.348Z,44.05
2017-04-12T04:01:50.586Z,44.05
2017-04-12T04:02:22.813Z,44.24
2017-04-12T04:02:55.060Z,44.14
2017-04-12T04:03:27.290Z,44.24
2017-04-12T04:03:59.652Z,44.05
2017-04-12T04:04:31.957Z,44.05
2017-04-12T04:05:04.270Z,44.24
2017-04-12T04:05:36.528Z,44.05
2017-04-12T04:06:08.762Z,44.05
2017-04-12T04:06:41.003Z,44.05
2017-04-12T04:07:13.346Z,44.14
2017-04-12T04:07:45.610Z,44.24
2017-04-12T04:08:17.868Z,44.14
2017-04-12T04:08:50.199Z,44.24
2017-04-12T04:09:22.480Z,44.24
2017-04-12T04:09:54.743Z,44.14
2017-04-12T04:10:27.045Z,43.76
2017-04-12T04:10:59.287Z,44.05
2017-04-12T04:11:31.553Z,44.05
2017-04-12T04:12:03.852Z,44.14
2017-04-12T04:12:36.163Z,44.14
2017-04-12T04:13:08.470Z,44.24
2017-04-12T04:13:40.768Z,44.05
2017-04-12T04:14:13.077Z,44.24
2017-04-12T04:14:45.392Z,44.24
2017-04-12T04:15:17.693Z,44.05
2017-04-12T04:15:49.993Z,44.24
2017-04-12T04:16:22.292Z,44.14
2017-04-12T04:16:54.588Z,44.24
2017-04-12T04:17:26.898Z,44.24
2017-04-12T04:17:59.196Z,44.24
2017-04-12T04:18:31.497Z,44.24
2017-04-12T04:19:03.797Z,44.24
2017-04-12T04:19:36.096Z,44.05
2017-04-12T04:20:08.397Z,44.24
2017-04-12T04:20:40.701Z,44.34
2017-04-12T04:21:13.007Z,44.14
2017-04-12T04:21:45.303Z,44.05
2017-04-12T04:22:17.595Z,43.95
2017-04-12T04:22:49.859Z,44.05
2017-04-12T04:23:22.157Z,44.14
2017-04-12T04:23:54.428Z,44.14
2017-04-12T04:24:26.673Z,44.24
2017-04-12T04:24:58.905Z,44.43
2017-04-12T04:25:31.689Z,43.95
2017-04-12T04:26:03.925Z,44.14
2017-04-12T04:26:36.182Z,44.34
2017-04-12T04:27:08.434Z,44.14
2017-04-12T04:27:40.708Z,44.24
2017-04-12T04:28:12.963Z,44.14
2017-04-12T04:28:45.233Z,44.05
2017-04-12T04:29:18.046Z,44.14
2017-04-12T04:29:50.296Z,44.43
2017-04-12T04:30:22.550Z,43.76
2017-04-12T04:30:54.810Z,44.34
2017-04-12T04:31:27.074Z,44.34
2017-04-12T04:31:59.357Z,44.34
2017-04-12T04:32:31.664Z,44.24
2017-04-12T04:33:03.962Z,44.34
2017-04-12T04:33:36.267Z,44.34
2017-04-12T04:34:08.561Z,43.95
2017-04-12T04:34:40.860Z,44.24
2017-04-12T04:35:13.158Z,44.14
2017-04-12T04:35:45.454Z,44.24
2017-04-12T04:36:17.746Z,43.95
2017-04-12T04:36:50.057Z,44.14
2017-04-12T04:37:22.347Z,44.14
2017-04-12T04:37:54.657Z,44.14
2017-04-12T04:38:26.973Z,44.34
2017-04-12T04:38:59.267Z,44.34
2017-04-12T04:39:31.577Z,44.14
2017-04-12T04:40:03.892Z,44.14
2017-04-12T04:40:36.242Z,44.43
2017-04-12T04:41:08.548Z,44.24
2017-04-12T04:41:40.862Z,44.14
2017-04-12T04:42:13.173Z,44.24
2017-04-12T04:42:45.498Z,43.85
2017-04-12T04:43:17.794Z,44.14
2017-04-12T04:43:50.090Z,44.43
2017-04-12T04:44:22.409Z,44.34
2017-04-12T04:44:54.733Z,44.34
2017-04-12T04:45:27.037Z,44.14
2017-04-12T04:45:59.362Z,44.14
2017-04-12T04:46:31.686Z,44.43
2017-04-12T04:47:04.011Z,44.14
2017-04-12T04:47:36.329Z,44.14
2017-04-12T04:48:08.639Z,44.24
2017-04-12T04:48:40.942Z,44.43
2017-04-12T04:49:13.258Z,44.14
2017-04-12T04:49:45.560Z,44.14
2017-04-12T04:50:17.863Z,43.95
2017-04-12T04:50:50.169Z,44.14
2017-04-12T04:51:22.464Z,44.34
2017-04-12T04:51:54.758Z,44.14
2017-04-12T04:52:27.047Z,44.34
2017-04-12T04:52:59.357Z,44.14
2017-04-12T04:53:31.656Z,44.14
2017-04-12T04:54:03.962Z,44.14
2017-04-12T04:54:36.530Z,43.85
2017-04-12T04:55:08.826Z,44.43
2017-04-12T04:55:41.129Z,44.24
2017-04-12T04:56:13.421Z,44.14
2017-04-12T04:56:45.721Z,44.24
2017-04-12T04:57:18.017Z,44.34
2017-04-12T04:57:50.318Z,44.34
2017-04-12T04:58:22.637Z,44.14
2017-04-12T04:58:54.942Z,44.14
2017-04-12T04:59:27.245Z,44.43
2017-04-12T04:59:59.558Z,44.43
2017-04-12T05:00:31.871Z,44.14
2017-04-12T05:01:04.185Z,44.43
2017-04-12T05:01:36.481Z,44.14
2017-04-12T05:02:08.774Z,44.24
2017-04-12T05:02:41.069Z,44.43
2017-04-12T05:03:13.370Z,44.43
2017-04-12T05:03:45.675Z,44.34
2017-04-12T05:04:18.107Z,43.95
2017-04-12T05:04:50.873Z,44.43
2017-04-12T05:05:23.954Z,44.34
2017-04-12T05:05:56.456Z,44.24
2017-04-12T05:06:28.769Z,44.43
2017-04-12T05:07:01.071Z,44.24
2017-04-12T05:07:33.372Z,44.05
2017-04-12T05:08:05.666Z,44.24
2017-04-12T05:08:37.975Z,44.24
2017-04-12T05:09:10.274Z,44.05
2017-04-12T05:11:01.861Z,44.34
2017-04-12T05:11:34.174Z,44.43
2017-04-12T05:12:06.475Z,44.43
2017-04-12T05:12:38.722Z,44.43
2017-04-12T05:13:10.975Z,44.14
2017-04-12T05:13:43.246Z,44.14
2017-04-12T05:14:15.508Z,44.14
2017-04-12T05:14:47.753Z,44.34
2017-04-12T05:15:20.744Z,44.14
2017-04-12T05:15:53.723Z,44.34
2017-04-12T05:16:26.013Z,44.43
2017-04-12T05:16:58.284Z,43.66
2017-04-12T05:17:30.526Z,44.14
2017-04-12T05:18:02.790Z,43.85
2017-04-12T05:18:35.028Z,44.34
2017-04-12T05:19:07.300Z,43.95
2017-04-12T05:19:39.629Z,44.14
2017-04-12T05:20:11.890Z,44.14
2017-04-12T05:20:44.150Z,43.95
2017-04-12T05:21:16.424Z,44.14
2017-04-12T05:21:48.676Z,44.14
2017-04-12T05:22:20.916Z,44.14
2017-04-12T05:22:53.237Z,44.14
2017-04-12T05:23:25.542Z,44.34
2017-04-12T05:23:57.846Z,44.05
2017-04-12T05:24:30.144Z,44.34
2017-04-12T05:25:02.466Z,44.14
2017-04-12T05:25:34.777Z,44.05
2017-04-12T05:26:07.088Z,44.05
2017-04-12T05:26:39.401Z,44.14
2017-04-12T05:27:11.716Z,44.14
2017-04-12T05:27:44.028Z,44.05
2017-04-12T05:28:16.331Z,44.05
2017-04-12T05:28:48.790Z,44.24
2017-04-12T05:29:21.529Z,44.14
2017-04-12T05:29:54.422Z,44.05
2017-04-12T05:30:26.821Z,44.34
2017-04-12T05:31:00.406Z,44.05
2017-04-12T05:31:33.560Z,44.05
2017-04-12T05:32:06.374Z,44.34
2017-04-12T05:32:39.324Z,44.05
2017-04-12T05:33:12.271Z,44.24
2017-04-12T05:33:45.167Z,44.17
2017-04-12T05:34:18.083Z,44.14
2017-04-12T05:34:51.258Z,44.24
2017-04-12T05:35:23.521Z,44.24
2017-04-12T05:35:55.778Z,44.14
2017-04-12T05:36:28.653Z,44.24
2017-04-12T05:37:00.915Z,44.07
2017-04-12T05:37:33.179Z,44.14
2017-04-12T05:38:05.431Z,44.14
2017-04-12T05:38:38.616Z,44.17
2017-04-12T05:39:10.917Z,44.17
2017-04-12T05:39:43.182Z,44.17
2017-04-12T05:40:15.447Z,44.35
2017-04-12T05:40:47.715Z,44.17
2017-04-12T05:41:19.971Z,44.26
2017-04-12T05:41:52.214Z,44.17
2017-04-12T05:42:24.618Z,44.07
2017-04-12T05:42:56.923Z,44.35
2017-04-12T05:43:29.240Z,44.07
2017-04-12T05:44:01.550Z,44.26
2017-04-12T05:44:33.853Z,43.78
2017-04-12T05:45:06.156Z,44.17
2017-04-12T05:45:38.454Z,43.88
2017-04-12T05:46:10.759Z,44.35
2017-04-12T05:46:43.056Z,44.35
2017-04-12T05:47:15.353Z,44.05
2017-04-12T05:47:47.641Z,44.07
2017-04-12T05:48:19.949Z,44.17
2017-04-12T05:48:52.255Z,44.07
2017-04-12T05:49:24.550Z,43.88
2017-04-12T05:49:56.860Z,43.78
2017-04-12T05:50:29.158Z,44.17
2017-04-12T05:51:01.459Z,44.17
2017-04-12T05:51:33.765Z,44.26
2017-04-12T05:52:06.078Z,44.17
2017-04-12T05:52:38.390Z,43.68
2017-04-12T05:53:10.705Z,44.17
2017-04-12T05:53:43.003Z,44.07
2017-04-12T05:54:15.325Z,43.97
2017-04-12T05:54:47.626Z,44.07
2017-04-12T05:55:19.936Z,43.88
2017-04-12T05:55:52.221Z,43.88
2017-04-12T05:56:24.520Z,43.88
2017-04-12T05:56:56.828Z,44.07
2017-04-12T05:57:29.130Z,44.26
2017-04-12T05:58:01.421Z,43.78
2017-04-12T05:58:33.726Z,44.26
2017-04-12T05:59:06.029Z,43.97
2017-04-12T05:59:38.345Z,44.07
2017-04-12T06:00:10.652Z,43.88
2017-04-12T06:00:42.952Z,43.97
2017-04-12T06:01:15.249Z,44.07
2017-04-12T06:01:47.544Z,43.97
2017-04-12T06:02:19.824Z,44.07
2017-04-12T06:02:52.088Z,43.88
2017-04-12T06:03:24.346Z,43.88
2017-04-12T06:03:56.613Z,43.97
2017-04-12T06:04:28.862Z,44.07
2017-04-12T06:05:01.275Z,43.88
2017-04-12T06:05:33.535Z,44.07
2017-04-12T06:06:05.853Z,44.07
2017-04-12T06:06:38.611Z,43.97
2017-04-12T06:07:10.853Z,44.17
2017-04-12T06:07:43.107Z,43.97
2017-04-12T06:08:15.363Z,44.17
2017-04-12T06:08:47.612Z,43.88
2017-04-12T06:09:19.869Z,43.97
2017-04-12T06:09:52.130Z,43.88
2017-04-12T06:10:25.269Z,43.78
2017-04-12T06:10:58.113Z,43.59
2017-04-12T06:11:30.379Z,43.8
2017-04-12T06:12:02.634Z,43.59
2017-04-12T06:12:34.952Z,43.99
2017-04-12T06:13:07.277Z,43.61
2017-04-12T06:13:39.591Z,43.9
2017-04-12T06:14:11.909Z,43.99
2017-04-12T06:14:44.224Z,43.41
2017-04-12T06:15:16.532Z,43.8
2017-04-12T06:15:49.097Z,43.51
2017-04-12T06:16:21.392Z,43.99
2017-04-12T06:16:53.697Z,43.61
2017-04-12T06:17:26.020Z,43.61
2017-04-12T06:17:58.360Z,43.71
2017-04-12T06:18:30.903Z,43.51
2017-04-12T06:19:03.677Z,43.61
2017-04-12T06:19:36.475Z,43.71
2017-04-12T06:20:09.152Z,43.61
2017-04-12T06:20:41.746Z,43.61
2017-04-12T06:21:14.104Z,43.71
2017-04-12T06:21:46.421Z,43.61
2017-04-12T06:22:18.734Z,43.61
2017-04-12T06:22:51.052Z,43.71
2017-04-12T06:23:23.392Z,43.61
2017-04-12T06:23:55.706Z,43.61
2017-04-12T06:24:28.031Z,43.61
2017-04-12T06:25:00.353Z,43.61
2017-04-12T06:25:32.669Z,43.51
2017-04-12T06:26:04.966Z,43.71
2017-04-12T06:26:37.263Z,43.61
2017-04-12T06:27:09.569Z,43.61
2017-04-12T06:27:41.879Z,43.61
2017-04-12T06:28:14.186Z,43.71
2017-04-12T06:28:46.482Z,43.61
2017-04-12T06:29:18.798Z,43.71
2017-04-12T06:29:51.095Z,43.61
2017-04-12T06:30:23.409Z,43.71
2017-04-12T06:30:55.704Z,43.61
2017-04-12T06:31:28.007Z,43.61
2017-04-12T06:32:01.266Z,43.8
2017-04-12T06:32:33.538Z,43.8
2017-04-12T06:33:05.789Z,43.71
2017-04-12T06:33:38.087Z,43.8
2017-04-12T06:34:10.344Z,43.51
2017-04-12T06:34:42.618Z,43.9
2017-04-12T06:35:14.883Z,43.71
2017-04-12T06:35:47.127Z,43.8
2017-04-12T06:36:20.252Z,43.41
2017-04-12T06:36:52.505Z,43.8
2017-04-12T06:37:24.768Z,43.8
2017-04-12T06:37:57.024Z,43.9
2017-04-12T06:38:30.222Z,43.51
2017-04-12T06:39:02.536Z,43.51
2017-04-12T06:39:34.785Z,43.9
2017-04-12T06:40:07.046Z,43.61
2017-04-12T06:40:39.304Z,43.41
2017-04-12T06:41:11.562Z,43.41
2017-04-12T06:41:43.831Z,43.32
2017-04-12T06:42:16.100Z,43.32
2017-04-12T06:42:48.403Z,43.15
2017-04-12T06:43:20.700Z,43.73
2017-04-12T06:43:53.022Z,43.44
2017-04-12T06:44:25.332Z,43.44
2017-04-12T06:44:57.635Z,43.44
2017-04-12T06:45:29.939Z,43.24
2017-04-12T06:46:02.237Z,43.24
2017-04-12T06:46:34.555Z,43.34
2017-04-12T06:47:06.849Z,43.24
2017-04-12T06:47:39.159Z,43.24
2017-04-12T06:48:11.485Z,43.34
2017-04-12T06:48:43.785Z,43.24
2017-04-12T06:49:16.107Z,43.24
2017-04-12T06:49:48.412Z,43.24
2017-04-12T06:50:20.722Z,43.15
2017-04-12T06:50:53.020Z,43.34
2017-04-12T06:51:25.324Z,43.24
2017-04-12T06:51:57.638Z,43.24
2017-04-12T06:52:29.935Z,43.15
2017-04-12T06:53:02.238Z,43.54
2017-04-12T06:53:34.547Z,43.15
2017-04-12T06:54:06.845Z,43.05
2017-04-12T06:54:39.141Z,43.05
2017-04-12T06:55:11.451Z,43.05
2017-04-12T06:55:43.758Z,43.34
2017-04-12T06:56:16.106Z,43.24
2017-04-12T06:56:48.420Z,43.24
2017-04-12T06:57:20.727Z,43.54
2017-04-12T06:57:53.030Z,43.24
2017-04-12T06:58:25.341Z,43.34